Artesian, South Dakota
Current Conditions -  °F | °C
As of 6:53 AM on Tuesday 21 Oct 2014 (Local Time) from KMHE Reporting Station
Clear Clear  
Wind Chill: 44°   Ceiling: Unl
Heat Index: 49°   Visibility: 10mi
Dew Point: 38°   Wind: 13mph
Humidity: 66%   Direction: 150°SSE
Pressure: 30.01"   Gusts: NA
Location:  44.01°N, 97.92°W
Report Text: KMHE 211153Z AUTO 15011KT 10SM CLR 09/03 A3001 RMK AO2 SLP166 7//// T00940033 10094 20061 57006
Loading
Personal Weather Stations






























Interactive Weather Map
Tropical Storm Tracking
New forecast layout! Learn more

10-Day Weather Forecast

Advertisements
Track Severe Weather on mobile